createdAt,value
2023-04-18T00:00:52.543Z,95277.00
2023-04-18T00:01:52.715Z,95277.00
2023-04-18T00:02:52.887Z,95275.00
2023-04-18T00:03:52.852Z,95275.00
2023-04-18T00:04:52.820Z,95275.00
2023-04-18T00:05:52.752Z,95273.00
2023-04-18T00:06:52.744Z,95273.00
2023-04-18T00:07:52.811Z,95271.00
2023-04-18T00:08:52.787Z,95271.00
2023-04-18T00:09:52.817Z,95270.00
2023-04-18T00:10:52.807Z,95270.00
2023-04-18T00:11:52.818Z,95270.00
2023-04-18T00:12:52.832Z,95268.00
2023-04-18T00:13:52.840Z,95270.00
2023-04-18T00:14:52.844Z,95268.00
2023-04-18T00:15:52.843Z,95268.00
2023-04-18T00:16:52.891Z,95266.00
2023-04-18T00:17:52.937Z,95266.00
2023-04-18T00:18:52.865Z,95266.00
2023-04-18T00:19:52.869Z,95260.00
2023-04-18T00:20:52.878Z,95264.00
2023-04-18T00:21:52.889Z,95264.00
2023-04-18T00:22:52.893Z,95262.00
2023-04-18T00:23:52.910Z,95260.00
2023-04-18T00:24:52.927Z,95258.00
2023-04-18T00:25:52.412Z,95260.00
2023-04-18T00:26:52.927Z,95260.00
2023-04-18T00:27:52.946Z,95262.00
2023-04-18T00:28:52.965Z,95262.00
2023-04-18T00:29:52.986Z,95262.00
2023-04-18T00:30:53.026Z,95260.00
2023-04-18T00:31:52.994Z,95260.00
2023-04-18T00:32:53.006Z,95260.00
2023-04-18T00:33:53.015Z,95260.00
2023-04-18T00:34:53.026Z,95260.00
2023-04-18T00:35:53.018Z,95264.00
2023-04-18T00:36:53.029Z,95264.00
2023-04-18T00:37:53.040Z,95266.00
2023-04-18T00:38:53.042Z,95264.00
2023-04-18T00:39:53.081Z,95264.00
2023-04-18T00:40:53.051Z,95262.00
2023-04-18T00:41:53.083Z,95262.00
2023-04-18T00:42:53.109Z,95262.00
2023-04-18T00:43:53.071Z,95264.00
2023-04-18T00:44:53.077Z,95264.00
2023-04-18T00:45:53.139Z,95264.00
2023-04-18T00:46:53.118Z,95262.00
2023-04-18T00:47:53.150Z,95264.00
2023-04-18T00:48:53.113Z,95262.00
2023-04-18T00:49:53.102Z,95262.00
2023-04-18T00:50:53.103Z,95260.00
2023-04-18T00:51:53.120Z,95262.00
2023-04-18T00:52:53.114Z,95262.00
2023-04-18T00:53:53.138Z,95260.00
2023-04-18T00:54:53.142Z,95260.00
2023-04-18T00:55:53.175Z,95264.00
2023-04-18T00:56:53.151Z,95260.00
2023-04-18T00:57:53.184Z,95264.00
2023-04-18T00:58:53.166Z,95264.00
2023-04-18T00:59:53.193Z,95264.00
2023-04-18T01:00:53.193Z,95264.00
2023-04-18T01:01:53.452Z,95262.00
2023-04-18T01:02:53.461Z,95262.00
2023-04-18T01:03:53.307Z,95262.00
2023-04-18T01:04:53.272Z,95262.00
2023-04-18T01:05:53.252Z,95264.00
2023-04-18T01:06:53.265Z,95264.00
2023-04-18T01:07:53.275Z,95264.00
2023-04-18T01:08:53.288Z,95264.00
2023-04-18T01:09:53.294Z,95264.00
2023-04-18T01:10:53.337Z,95266.00
2023-04-18T01:11:53.315Z,95268.00
2023-04-18T01:12:53.330Z,95264.00
2023-04-18T01:13:53.351Z,95262.00
2023-04-18T01:14:53.348Z,95260.00
2023-04-18T01:15:53.368Z,95264.00
2023-04-18T01:16:53.352Z,95262.00
2023-04-18T01:17:53.434Z,95256.00
2023-04-18T01:18:53.384Z,95256.00
2023-04-18T01:19:53.395Z,95256.00
2023-04-18T01:20:53.415Z,95254.00
2023-04-18T01:21:53.420Z,95254.00
2023-04-18T01:22:53.439Z,95250.00
2023-04-18T01:23:53.444Z,95250.00
2023-04-18T01:24:53.446Z,95250.00
2023-04-18T01:25:53.465Z,95246.00
2023-04-18T01:26:53.485Z,95248.00
2023-04-18T01:27:53.491Z,95246.00
2023-04-18T01:28:53.502Z,95244.00
2023-04-18T01:29:53.552Z,95242.00
2023-04-18T01:30:53.540Z,95242.00
2023-04-18T01:31:53.529Z,95242.00
2023-04-18T01:32:53.589Z,95242.00
2023-04-18T01:33:53.567Z,95240.00
2023-04-18T01:34:53.564Z,95242.00
2023-04-18T01:35:53.581Z,95240.00
2023-04-18T01:36:53.588Z,95240.00
2023-04-18T01:37:53.592Z,95240.00
2023-04-18T01:38:53.607Z,95240.00
2023-04-18T01:39:53.626Z,95238.00
2023-04-18T01:40:53.626Z,95238.00
2023-04-18T01:41:53.653Z,95236.00
2023-04-18T01:42:53.643Z,95238.00
2023-04-18T01:43:53.661Z,95236.00
2023-04-18T01:44:53.661Z,95238.00
2023-04-18T01:45:53.696Z,95238.00
2023-04-18T01:46:53.807Z,95238.00
2023-04-18T01:47:53.748Z,95236.00
2023-04-18T01:48:53.696Z,95234.00
2023-04-18T01:49:53.724Z,95234.00
2023-04-18T01:50:53.716Z,95232.00
2023-04-18T01:51:53.732Z,95234.00
2023-04-18T01:52:53.710Z,95232.00
2023-04-18T01:53:53.723Z,95236.00
2023-04-18T01:54:53.718Z,95234.00
2023-04-18T01:55:53.720Z,95236.00
2023-04-18T01:56:53.733Z,95236.00
2023-04-18T01:57:53.730Z,95234.00
2023-04-18T01:58:53.743Z,95236.00
2023-04-18T01:59:53.741Z,95236.00
2023-04-18T02:00:53.785Z,95234.00
2023-04-18T02:01:53.894Z,95236.00
2023-04-18T02:02:53.870Z,95234.00
2023-04-18T02:03:54.206Z,95236.00
2023-04-18T02:04:53.780Z,95236.00
2023-04-18T02:05:53.783Z,95238.00
2023-04-18T02:06:53.793Z,95240.00
2023-04-18T02:07:53.803Z,95238.00
2023-04-18T02:08:53.790Z,95240.00
2023-04-18T02:09:53.793Z,95238.00
2023-04-18T02:10:53.806Z,95238.00
2023-04-18T02:11:53.803Z,95238.00
2023-04-18T02:12:53.805Z,95236.00
2023-04-18T02:13:53.819Z,95238.00
2023-04-18T02:14:53.812Z,95238.00
2023-04-18T02:15:53.818Z,95238.00
2023-04-18T02:16:53.864Z,95236.00
2023-04-18T02:17:53.900Z,95238.00
2023-04-18T02:18:53.819Z,95236.00
2023-04-18T02:19:53.848Z,95236.00
2023-04-18T02:20:53.831Z,95236.00
2023-04-18T02:21:53.827Z,95238.00
2023-04-18T02:22:53.817Z,95236.00
2023-04-18T02:23:53.839Z,95236.00
2023-04-18T02:24:53.832Z,95238.00
2023-04-18T02:25:53.841Z,95240.00
2023-04-18T02:26:53.861Z,95240.00
2023-04-18T02:27:53.845Z,95242.00
2023-04-18T02:28:53.848Z,95244.00
2023-04-18T02:29:53.850Z,95244.00
2023-04-18T02:30:53.843Z,95244.00
2023-04-18T02:31:53.884Z,95246.00
2023-04-18T02:32:53.891Z,95246.00
2023-04-18T02:33:53.887Z,95244.00
2023-04-18T02:34:53.852Z,95244.00
2023-04-18T02:35:53.857Z,95244.00
2023-04-18T02:36:53.865Z,95242.00
2023-04-18T02:37:53.849Z,95242.00
2023-04-18T02:38:53.860Z,95244.00
2023-04-18T02:39:53.864Z,95242.00
2023-04-18T02:40:53.866Z,95244.00
2023-04-18T02:41:54.624Z,95244.00
2023-04-18T02:42:53.874Z,95242.00
2023-04-18T02:43:53.875Z,95242.00
2023-04-18T02:44:53.877Z,95246.00
2023-04-18T02:45:53.909Z,95246.00
2023-04-18T02:46:53.866Z,95248.00
2023-04-18T02:47:56.000Z,95250.00
2023-04-18T02:48:54.616Z,95246.00
2023-04-18T02:49:53.893Z,95244.00
2023-04-18T02:50:53.856Z,95248.00
2023-04-18T02:51:53.852Z,95248.00
2023-04-18T02:52:53.917Z,95246.00
2023-04-18T02:53:53.834Z,95248.00
2023-04-18T02:54:53.823Z,95248.00
2023-04-18T02:55:53.845Z,95246.00
2023-04-18T02:56:54.843Z,95246.00
2023-04-18T02:57:53.825Z,95246.00
2023-04-18T02:58:53.800Z,95246.00
2023-04-18T02:59:53.788Z,95246.00
2023-04-18T03:00:53.834Z,95244.00
2023-04-18T03:01:53.894Z,95246.00
2023-04-18T03:02:53.921Z,95248.00
2023-04-18T03:03:53.763Z,95248.00
2023-04-18T03:04:53.813Z,95244.00
2023-04-18T03:05:53.771Z,95248.00
2023-04-18T03:06:53.742Z,95244.00
2023-04-18T03:07:53.737Z,95246.00
2023-04-18T03:08:53.723Z,95246.00
2023-04-18T03:09:53.722Z,95244.00
2023-04-18T03:10:55.736Z,95242.00
2023-04-18T03:11:53.708Z,95244.00
2023-04-18T03:12:53.694Z,95242.00
2023-04-18T03:13:53.692Z,95240.00
2023-04-18T03:14:53.680Z,95240.00
2023-04-18T03:15:53.695Z,95238.00
2023-04-18T03:16:55.393Z,95242.00
2023-04-18T03:17:53.754Z,95238.00
2023-04-18T03:18:53.648Z,95238.00
2023-04-18T03:19:53.643Z,95236.00
2023-04-18T03:20:53.655Z,95236.00
2023-04-18T03:21:53.665Z,95234.00
2023-04-18T03:22:53.638Z,95236.00
2023-04-18T03:23:53.621Z,95234.00
2023-04-18T03:24:53.605Z,95232.00
2023-04-18T03:25:53.596Z,95230.00
2023-04-18T03:26:53.605Z,95232.00
2023-04-18T03:27:53.579Z,95232.00
2023-04-18T03:28:53.574Z,95232.00
2023-04-18T03:29:53.584Z,95236.00
2023-04-18T03:30:53.617Z,95236.00
2023-04-18T03:31:53.563Z,95230.00
2023-04-18T03:32:53.627Z,95232.00
2023-04-18T03:33:53.561Z,95232.00
2023-04-18T03:34:53.537Z,95232.00
2023-04-18T03:35:53.530Z,95230.00
2023-04-18T03:36:52.518Z,95232.00
2023-04-18T03:37:53.539Z,95230.00
2023-04-18T03:38:53.505Z,95232.00
2023-04-18T03:39:53.509Z,95232.00
2023-04-18T03:40:53.491Z,95230.00
2023-04-18T03:41:53.486Z,95228.00
2023-04-18T03:42:53.471Z,95226.00
2023-04-18T03:43:53.470Z,95226.00
2023-04-18T03:44:53.470Z,95226.00
2023-04-18T03:45:53.525Z,95224.00
2023-04-18T03:46:53.441Z,95224.00
2023-04-18T03:47:53.544Z,95223.00
2023-04-18T03:48:53.433Z,95223.00
2023-04-18T03:49:53.432Z,95224.00
2023-04-18T03:50:53.426Z,95224.00
2023-04-18T03:51:53.412Z,95226.00
2023-04-18T03:52:53.413Z,95226.00
2023-04-18T03:53:53.432Z,95228.00
2023-04-18T03:54:53.419Z,95228.00
2023-04-18T03:55:53.396Z,95228.00
2023-04-18T03:56:53.391Z,95230.00
2023-04-18T03:57:53.369Z,95230.00
2023-04-18T03:58:53.387Z,95232.00
2023-04-18T03:59:53.369Z,95232.00
2023-04-18T04:00:53.351Z,95232.00
2023-04-18T04:01:53.506Z,95232.00
2023-04-18T04:02:53.517Z,95232.00
2023-04-18T04:03:54.301Z,95234.00
2023-04-18T04:04:53.385Z,95232.00
2023-04-18T04:05:53.318Z,95234.00
2023-04-18T04:06:53.314Z,95234.00
2023-04-18T04:07:53.307Z,95232.00
2023-04-18T04:08:53.330Z,95234.00
2023-04-18T04:09:53.346Z,95236.00
2023-04-18T04:10:54.154Z,95236.00
2023-04-18T04:11:53.354Z,95238.00
2023-04-18T04:12:53.350Z,95236.00
2023-04-18T04:13:53.353Z,95236.00
2023-04-18T04:14:53.370Z,95234.00
2023-04-18T04:15:53.426Z,95238.00
2023-04-18T04:16:53.425Z,95236.00
2023-04-18T04:17:53.499Z,95236.00
2023-04-18T04:18:53.393Z,95240.00
2023-04-18T04:19:53.406Z,95238.00
2023-04-18T04:20:53.440Z,95236.00
2023-04-18T04:21:53.404Z,95240.00
2023-04-18T04:22:53.417Z,95238.00
2023-04-18T04:23:53.418Z,95238.00
2023-04-18T04:24:53.431Z,95242.00
2023-04-18T04:25:53.454Z,95240.00
2023-04-18T04:26:53.434Z,95242.00
2023-04-18T04:27:53.443Z,95240.00
2023-04-18T04:28:53.445Z,95238.00
2023-04-18T04:29:53.450Z,95240.00
2023-04-18T04:30:53.454Z,95238.00
2023-04-18T04:31:53.492Z,95238.00
2023-04-18T04:32:53.500Z,95240.00
2023-04-18T04:33:53.468Z,95240.00
2023-04-18T04:34:53.475Z,95242.00
2023-04-18T04:35:53.474Z,95240.00
2023-04-18T04:36:53.476Z,95242.00
2023-04-18T04:37:53.484Z,95240.00
2023-04-18T04:38:53.493Z,95240.00
2023-04-18T04:39:53.506Z,95240.00
2023-04-18T04:40:53.514Z,95240.00
2023-04-18T04:41:53.546Z,95238.00
2023-04-18T04:42:53.541Z,95240.00
2023-04-18T04:43:53.543Z,95240.00
2023-04-18T04:44:53.618Z,95240.00
2023-04-18T04:45:53.640Z,95240.00
2023-04-18T04:46:53.580Z,95240.00
2023-04-18T04:47:53.643Z,95240.00
2023-04-18T04:48:53.602Z,95244.00
2023-04-18T04:49:53.618Z,95240.00
2023-04-18T04:50:53.656Z,95240.00
2023-04-18T04:51:54.179Z,95240.00
2023-04-18T04:52:56.161Z,95240.00
2023-04-18T04:53:53.616Z,95240.00
2023-04-18T04:54:53.621Z,95242.00
2023-04-18T04:55:53.622Z,95244.00
2023-04-18T04:56:53.607Z,95242.00
2023-04-18T04:57:53.611Z,95244.00
2023-04-18T04:58:53.583Z,95244.00
2023-04-18T04:59:53.581Z,95244.00
2023-04-18T05:00:53.629Z,95246.00
2023-04-18T05:01:53.717Z,95244.00
2023-04-18T05:02:53.766Z,95246.00
2023-04-18T05:03:53.621Z,95248.00
2023-04-18T05:04:53.556Z,95246.00
2023-04-18T05:05:53.539Z,95250.00
2023-04-18T05:06:53.533Z,95246.00
2023-04-18T05:07:53.529Z,95246.00
2023-04-18T05:08:53.511Z,95250.00
2023-04-18T05:09:53.513Z,95252.00
2023-04-18T05:10:53.491Z,95254.00
2023-04-18T05:11:53.488Z,95254.00
2023-04-18T05:12:53.493Z,95256.00
2023-04-18T05:13:53.494Z,95256.00
2023-04-18T05:14:53.480Z,95256.00
2023-04-18T05:15:53.458Z,95256.00
2023-04-18T05:16:53.486Z,95260.00
2023-04-18T05:17:53.733Z,95260.00
2023-04-18T05:18:53.440Z,95258.00
2023-04-18T05:19:53.684Z,95258.00
2023-04-18T05:20:53.427Z,95258.00
2023-04-18T05:21:53.413Z,95258.00
2023-04-18T05:22:53.441Z,95258.00
2023-04-18T05:23:53.396Z,95258.00
2023-04-18T05:24:53.680Z,95260.00
2023-04-18T05:25:53.384Z,95260.00
2023-04-18T05:26:53.392Z,95262.00
2023-04-18T05:27:53.371Z,95266.00
2023-04-18T05:28:53.371Z,95262.00
2023-04-18T05:29:53.436Z,95264.00
2023-04-18T05:30:53.705Z,95262.00
2023-04-18T05:31:53.344Z,95262.00
2023-04-18T05:32:53.372Z,95262.00
2023-04-18T05:33:56.504Z,95264.00
2023-04-18T05:34:53.332Z,95260.00
2023-04-18T05:35:53.683Z,95264.00
2023-04-18T05:36:53.314Z,95264.00
2023-04-18T05:37:53.690Z,95264.00
2023-04-18T05:38:53.297Z,95268.00
2023-04-18T05:39:53.695Z,95264.00
2023-04-18T05:40:53.282Z,95264.00
2023-04-18T05:41:54.192Z,95264.00
2023-04-18T05:42:53.279Z,95266.00
2023-04-18T05:44:02.322Z,95268.00
2023-04-18T05:44:56.495Z,95268.00
2023-04-18T05:45:54.221Z,95268.00
2023-04-18T05:46:53.253Z,95268.00
2023-04-18T05:47:53.939Z,95264.00
2023-04-18T05:48:53.691Z,95270.00
2023-04-18T05:49:53.709Z,95271.00
2023-04-18T05:50:53.237Z,95271.00
2023-04-18T05:51:53.223Z,95273.00
2023-04-18T05:52:53.235Z,95275.00
2023-04-18T05:53:54.197Z,95275.00
2023-04-18T05:54:53.213Z,95277.00
2023-04-18T05:55:53.187Z,95277.00
2023-04-18T05:56:53.212Z,95279.00
2023-04-18T05:57:53.174Z,95277.00
2023-04-18T05:58:53.220Z,95277.00
2023-04-18T05:59:53.222Z,95277.00
2023-04-18T06:00:53.210Z,95279.00
2023-04-18T06:01:53.160Z,95281.00
2023-04-18T06:02:53.374Z,95279.00
2023-04-18T06:03:53.459Z,95279.00
2023-04-18T06:04:53.265Z,95281.00
2023-04-18T06:05:53.141Z,95279.00
2023-04-18T06:06:53.122Z,95283.00
2023-04-18T06:07:53.198Z,95285.00
2023-04-18T06:08:53.105Z,95287.00
2023-04-18T06:09:53.199Z,95289.00
2023-04-18T06:10:53.082Z,95289.00
2023-04-18T06:11:53.088Z,95287.00
2023-04-18T06:12:53.075Z,95289.00
2023-04-18T06:13:53.198Z,95289.00
2023-04-18T06:14:53.692Z,95289.00
2023-04-18T06:15:53.777Z,95291.00
2023-04-18T06:16:53.488Z,95291.00
2023-04-18T06:17:53.723Z,95293.00
2023-04-18T06:18:53.542Z,95297.00
2023-04-18T06:19:53.706Z,95297.00
2023-04-18T06:20:53.680Z,95297.00
2023-04-18T06:21:53.493Z,95299.00
2023-04-18T06:22:53.640Z,95301.00
2023-04-18T06:23:53.722Z,95299.00
2023-04-18T06:24:53.651Z,95299.00
2023-04-18T06:25:53.530Z,95301.00
2023-04-18T06:26:53.860Z,95303.00
2023-04-18T06:27:53.252Z,95301.00
2023-04-18T06:28:53.664Z,95303.00
2023-04-18T06:29:54.333Z,95303.00
2023-04-18T06:30:53.472Z,95305.00
2023-04-18T06:31:53.413Z,95305.00
2023-04-18T06:32:53.737Z,95305.00
2023-04-18T06:33:53.496Z,95305.00
2023-04-18T06:34:53.328Z,95303.00
2023-04-18T06:35:53.528Z,95303.00
2023-04-18T06:36:53.511Z,95303.00
2023-04-18T06:37:55.712Z,95301.00
2023-04-18T06:38:53.710Z,95299.00
2023-04-18T06:39:54.519Z,95297.00
2023-04-18T06:40:53.511Z,95295.00
2023-04-18T06:41:53.531Z,95297.00
2023-04-18T06:42:53.508Z,95295.00
2023-04-18T06:44:03.539Z,95293.00
2023-04-18T06:44:53.482Z,95295.00
2023-04-18T06:45:53.149Z,95295.00
2023-04-18T06:46:53.529Z,95293.00
2023-04-18T06:47:53.194Z,95293.00
2023-04-18T06:48:53.195Z,95291.00
2023-04-18T06:49:53.520Z,95291.00
2023-04-18T06:50:53.067Z,95291.00
2023-04-18T06:51:53.560Z,95291.00
2023-04-18T06:52:53.555Z,95291.00
2023-04-18T06:53:53.074Z,95291.00
2023-04-18T06:54:53.541Z,95293.00
2023-04-18T06:55:53.027Z,95293.00
2023-04-18T06:56:53.023Z,95293.00
2023-04-18T06:57:53.022Z,95295.00
2023-04-18T06:58:53.540Z,95295.00
2023-04-18T06:59:53.006Z,95297.00
2023-04-18T07:00:53.547Z,95297.00
2023-04-18T07:01:53.014Z,95297.00
2023-04-18T07:02:53.103Z,95295.00
2023-04-18T07:03:53.622Z,95295.00
2023-04-18T07:04:53.073Z,95295.00
2023-04-18T07:05:52.959Z,95291.00
2023-04-18T07:06:52.947Z,95293.00
2023-04-18T07:07:52.945Z,95291.00
2023-04-18T07:08:54.541Z,95293.00
2023-04-18T07:09:53.122Z,95293.00
2023-04-18T07:10:53.097Z,95293.00
2023-04-18T07:11:53.104Z,95295.00
2023-04-18T07:12:53.093Z,95293.00
2023-04-18T07:13:53.669Z,95293.00
2023-04-18T07:14:53.098Z,95291.00
2023-04-18T07:15:53.090Z,95291.00
2023-04-18T07:16:53.158Z,95291.00
2023-04-18T07:17:53.149Z,95295.00
2023-04-18T07:18:53.095Z,95293.00
2023-04-18T07:19:53.097Z,95295.00
2023-04-18T07:20:53.158Z,95293.00
2023-04-18T07:21:53.099Z,95295.00
2023-04-18T07:22:53.094Z,95293.00
2023-04-18T07:23:53.537Z,95293.00
2023-04-18T07:24:54.075Z,95293.00
2023-04-18T07:25:53.092Z,95291.00
2023-04-18T07:26:54.914Z,95293.00
2023-04-18T07:27:54.091Z,95295.00
2023-04-18T07:28:53.543Z,95291.00
2023-04-18T07:29:53.090Z,95293.00
2023-04-18T07:30:53.124Z,95291.00
2023-04-18T07:31:53.119Z,95291.00
2023-04-18T07:32:53.599Z,95295.00
2023-04-18T07:33:53.238Z,95293.00
2023-04-18T07:34:53.152Z,95293.00
2023-04-18T07:35:53.291Z,95291.00
2023-04-18T07:36:53.201Z,95291.00
2023-04-18T07:37:53.164Z,95287.00
2023-04-18T07:38:53.224Z,95289.00
2023-04-18T07:39:53.240Z,95287.00
2023-04-18T07:40:53.185Z,95287.00
2023-04-18T07:41:53.147Z,95287.00
2023-04-18T07:42:53.280Z,95289.00
2023-04-18T07:43:53.292Z,95289.00
2023-04-18T07:44:53.146Z,95293.00
2023-04-18T07:45:53.155Z,95293.00
2023-04-18T07:46:53.160Z,95293.00
2023-04-18T07:47:53.229Z,95293.00
2023-04-18T07:48:53.236Z,95293.00
2023-04-18T07:49:53.168Z,95293.00
2023-04-18T07:50:53.241Z,95293.00
2023-04-18T07:51:56.332Z,95293.00
2023-04-18T07:52:53.134Z,95295.00
2023-04-18T07:53:53.108Z,95295.00
2023-04-18T07:54:53.273Z,95295.00
2023-04-18T07:55:54.250Z,95293.00
2023-04-18T07:56:53.077Z,95293.00
2023-04-18T07:57:53.071Z,95297.00
2023-04-18T07:58:53.069Z,95297.00
2023-04-18T07:59:53.743Z,95295.00
2023-04-18T08:00:53.260Z,95293.00
2023-04-18T08:01:53.077Z,95293.00
2023-04-18T08:02:53.132Z,95293.00
2023-04-18T08:03:53.220Z,95293.00
2023-04-18T08:04:53.263Z,95295.00
2023-04-18T08:05:53.244Z,95295.00
2023-04-18T08:06:53.018Z,95291.00
2023-04-18T08:07:53.049Z,95293.00
2023-04-18T08:08:53.242Z,95293.00
2023-04-18T08:09:52.992Z,95295.00
2023-04-18T08:10:52.986Z,95291.00
2023-04-18T08:11:52.980Z,95295.00
2023-04-18T08:12:52.964Z,95297.00
2023-04-18T08:13:52.975Z,95295.00
2023-04-18T08:14:53.752Z,95297.00
2023-04-18T08:15:53.312Z,95295.00
2023-04-18T08:16:52.935Z,95299.00
2023-04-18T08:17:52.961Z,95297.00
2023-04-18T08:18:52.930Z,95299.00
2023-04-18T08:19:53.260Z,95295.00
2023-04-18T08:20:52.902Z,95297.00
2023-04-18T08:21:52.912Z,95295.00
2023-04-18T08:23:06.028Z,95295.00
2023-04-18T08:23:53.164Z,95295.00
2023-04-18T08:25:04.363Z,95297.00
2023-04-18T08:25:52.901Z,95297.00
2023-04-18T08:26:53.100Z,95295.00
2023-04-18T08:27:53.091Z,95293.00
2023-04-18T08:28:52.875Z,95297.00
2023-04-18T08:29:53.250Z,95297.00
2023-04-18T08:30:52.838Z,95297.00
2023-04-18T08:31:52.942Z,95295.00
2023-04-18T08:32:52.866Z,95299.00
2023-04-18T08:33:52.824Z,95297.00
2023-04-18T08:34:53.256Z,95297.00
2023-04-18T08:35:52.809Z,95293.00
2023-04-18T08:36:52.781Z,95293.00
2023-04-18T08:37:52.801Z,95291.00
2023-04-18T08:38:52.777Z,95295.00
2023-04-18T08:39:53.279Z,95295.00
2023-04-18T08:40:53.763Z,95291.00
2023-04-18T08:41:52.752Z,95293.00
2023-04-18T08:42:52.767Z,95293.00
2023-04-18T08:43:54.257Z,95293.00
2023-04-18T08:44:52.767Z,95291.00
2023-04-18T08:45:53.767Z,95291.00
2023-04-18T08:46:52.713Z,95293.00
2023-04-18T08:47:52.736Z,95297.00
2023-04-18T08:48:52.699Z,95295.00
2023-04-18T08:49:53.809Z,95295.00
2023-04-18T08:50:52.691Z,95297.00
2023-04-18T08:51:52.670Z,95295.00
2023-04-18T08:52:52.672Z,95297.00
2023-04-18T08:53:52.766Z,95295.00
2023-04-18T08:54:52.696Z,95295.00
2023-04-18T08:55:52.673Z,95293.00
2023-04-18T08:56:52.676Z,95297.00
2023-04-18T08:57:52.629Z,95297.00
2023-04-18T08:58:52.774Z,95297.00
2023-04-18T08:59:52.613Z,95293.00
2023-04-18T09:00:52.655Z,95295.00
2023-04-18T09:01:52.779Z,95295.00
2023-04-18T09:02:52.862Z,95293.00
2023-04-18T09:03:52.650Z,95293.00
2023-04-18T09:04:52.749Z,95293.00
2023-04-18T09:05:52.565Z,95291.00
2023-04-18T09:06:52.607Z,95293.00
2023-04-18T09:07:52.758Z,95291.00
2023-04-18T09:08:52.682Z,95291.00
2023-04-18T09:09:52.732Z,95291.00
2023-04-18T09:10:52.779Z,95289.00
2023-04-18T09:11:52.881Z,95285.00
2023-04-18T09:12:53.271Z,95287.00
2023-04-18T09:13:52.904Z,95283.00
2023-04-18T09:14:52.961Z,95287.00
2023-04-18T09:15:53.014Z,95289.00
2023-04-18T09:16:53.063Z,95287.00
2023-04-18T09:17:53.431Z,95285.00
2023-04-18T09:18:53.134Z,95283.00
2023-04-18T09:19:53.190Z,95285.00
2023-04-18T09:20:53.250Z,95285.00
2023-04-18T09:21:53.773Z,95283.00
2023-04-18T09:22:53.365Z,95285.00
2023-04-18T09:23:53.423Z,95283.00
2023-04-18T09:24:53.502Z,95279.00
2023-04-18T09:25:53.790Z,95279.00
2023-04-18T09:26:53.829Z,95279.00
2023-04-18T09:27:53.943Z,95273.00
2023-04-18T09:28:54.015Z,95275.00
2023-04-18T09:29:54.671Z,95275.00
2023-04-18T09:30:53.767Z,95271.00
2023-04-18T09:31:53.772Z,95271.00
2023-04-18T09:32:57.860Z,95271.00
2023-04-18T09:33:53.713Z,95270.00
2023-04-18T09:34:53.715Z,95268.00
2023-04-18T09:35:53.698Z,95266.00
2023-04-18T09:36:53.870Z,95266.00
2023-04-18T09:37:53.683Z,95266.00
2023-04-18T09:38:56.190Z,95266.00
2023-04-18T09:39:53.697Z,95268.00
2023-04-18T09:40:53.783Z,95264.00
2023-04-18T09:41:53.678Z,95270.00
2023-04-18T09:42:53.669Z,95266.00
2023-04-18T09:43:53.714Z,95266.00
2023-04-18T09:44:56.403Z,95264.00
2023-04-18T09:45:53.851Z,95266.00
2023-04-18T09:46:53.646Z,95258.00
2023-04-18T09:47:53.938Z,95262.00
2023-04-18T09:48:53.624Z,95260.00
2023-04-18T09:49:53.614Z,95260.00
2023-04-18T09:50:53.621Z,95256.00
2023-04-18T09:51:53.796Z,95256.00
2023-04-18T09:52:56.622Z,95256.00
2023-04-18T09:53:53.601Z,95258.00
2023-04-18T09:54:53.579Z,95262.00
2023-04-18T09:55:55.548Z,95260.00
2023-04-18T09:56:53.566Z,95256.00
2023-04-18T09:57:53.557Z,95252.00
2023-04-18T09:58:53.555Z,95258.00
2023-04-18T09:59:53.583Z,95262.00
2023-04-18T10:00:53.803Z,95258.00
2023-04-18T10:01:53.625Z,95254.00
2023-04-18T10:02:54.410Z,95256.00
2023-04-18T10:03:54.353Z,95254.00
2023-04-18T10:04:53.691Z,95260.00
2023-04-18T10:05:55.294Z,95262.00
2023-04-18T10:06:53.570Z,95260.00
2023-04-18T10:07:53.693Z,95260.00
2023-04-18T10:08:53.556Z,95260.00
2023-04-18T10:09:53.565Z,95260.00
2023-04-18T10:10:54.303Z,95260.00
2023-04-18T10:11:53.545Z,95256.00
2023-04-18T10:12:53.531Z,95260.00
2023-04-18T10:13:53.533Z,95258.00
2023-04-18T10:14:53.794Z,95250.00
2023-04-18T10:15:53.625Z,95252.00
2023-04-18T10:16:53.515Z,95252.00
2023-04-18T10:18:52.532Z,95250.00
2023-04-18T10:19:53.506Z,95250.00
2023-04-18T10:20:53.486Z,95252.00
2023-04-18T10:21:53.511Z,95250.00
2023-04-18T10:22:53.817Z,95244.00
2023-04-18T10:23:53.496Z,95246.00
2023-04-18T10:24:54.038Z,95248.00
2023-04-18T10:25:53.515Z,95246.00
2023-04-18T10:26:53.792Z,95248.00
2023-04-18T10:27:53.511Z,95244.00
2023-04-18T10:28:53.998Z,95244.00
2023-04-18T10:29:53.637Z,95246.00
2023-04-18T10:30:53.694Z,95244.00
2023-04-18T10:31:53.959Z,95242.00
2023-04-18T10:32:53.881Z,95240.00
2023-04-18T10:34:04.130Z,95240.00
2023-04-18T10:34:53.864Z,95242.00
2023-04-18T10:35:53.877Z,95242.00
2023-04-18T10:36:54.327Z,95240.00
2023-04-18T10:37:54.141Z,95240.00
2023-04-18T10:38:53.834Z,95240.00
2023-04-18T10:39:53.827Z,95238.00
2023-04-18T10:40:54.029Z,95238.00
2023-04-18T10:41:54.397Z,95236.00
2023-04-18T10:42:54.298Z,95234.00
2023-04-18T10:43:53.827Z,95232.00
2023-04-18T10:44:53.792Z,95234.00
2023-04-18T10:45:53.795Z,95236.00
2023-04-18T10:46:53.820Z,95236.00
2023-04-18T10:47:53.859Z,95236.00
2023-04-18T10:48:53.770Z,95236.00
2023-04-18T10:49:54.121Z,95234.00
2023-04-18T10:50:53.750Z,95236.00
2023-04-18T10:51:53.824Z,95234.00
2023-04-18T10:52:53.806Z,95232.00
2023-04-18T10:53:53.847Z,95232.00
2023-04-18T10:54:53.911Z,95234.00
2023-04-18T10:55:54.323Z,95232.00
2023-04-18T10:56:54.335Z,95230.00
2023-04-18T10:57:54.305Z,95234.00
2023-04-18T10:58:54.138Z,95234.00
2023-04-18T10:59:54.195Z,95232.00
2023-04-18T11:00:54.296Z,95228.00
2023-04-18T11:01:54.872Z,95230.00
2023-04-18T11:02:54.554Z,95230.00
2023-04-18T11:03:55.229Z,95224.00
2023-04-18T11:04:54.678Z,95224.00
2023-04-18T11:05:55.165Z,95223.00
2023-04-18T11:06:54.846Z,95221.00
2023-04-18T11:07:54.744Z,95221.00
2023-04-18T11:08:54.744Z,95215.00
2023-04-18T11:09:54.836Z,95217.00
2023-04-18T11:10:55.810Z,95215.00
2023-04-18T11:11:55.312Z,95211.00
2023-04-18T11:12:55.004Z,95211.00
2023-04-18T11:13:55.013Z,95211.00
2023-04-18T11:14:55.084Z,95211.00
2023-04-18T11:15:55.113Z,95207.00
2023-04-18T11:16:55.749Z,95211.00
2023-04-18T11:17:55.684Z,95211.00
2023-04-18T11:18:55.669Z,95211.00
2023-04-18T11:19:55.865Z,95209.00
2023-04-18T11:20:55.682Z,95209.00
2023-04-18T11:21:55.815Z,95203.00
2023-04-18T11:22:55.685Z,95207.00
2023-04-18T11:23:56.687Z,95207.00
2023-04-18T11:24:55.681Z,95207.00
2023-04-18T11:25:55.702Z,95209.00
2023-04-18T11:26:56.387Z,95205.00
2023-04-18T11:27:55.819Z,95203.00
2023-04-18T11:28:55.844Z,95205.00
2023-04-18T11:29:55.929Z,95205.00
2023-04-18T11:30:55.955Z,95207.00
2023-04-18T11:31:58.601Z,95207.00
2023-04-18T11:32:56.757Z,95207.00
2023-04-18T11:33:56.000Z,95207.00
2023-04-18T11:34:55.995Z,95207.00
2023-04-18T11:35:56.013Z,95207.00
2023-04-18T11:36:56.014Z,95207.00
2023-04-18T11:37:56.328Z,95207.00
2023-04-18T11:38:55.966Z,95209.00
2023-04-18T11:39:55.965Z,95209.00
2023-04-18T11:40:55.943Z,95205.00
2023-04-18T11:41:56.321Z,95207.00
2023-04-18T11:42:56.362Z,95205.00
2023-04-18T11:43:55.932Z,95211.00
2023-04-18T11:44:55.996Z,95213.00
2023-04-18T11:45:56.215Z,95213.00